createdAt,value
2017-06-11T00:00:55.838Z,17.02
2017-06-11T00:01:55.291Z,17.12
2017-06-11T00:02:55.335Z,17.15
2017-06-11T00:03:55.367Z,17.2
2017-06-11T00:04:55.367Z,17.17
2017-06-11T00:05:55.450Z,17.12
2017-06-11T00:06:55.463Z,17.18
2017-06-11T00:07:55.491Z,17.13
2017-06-11T00:08:55.524Z,17.15
2017-06-11T00:09:55.572Z,17.1
2017-06-11T00:10:55.589Z,17.12
2017-06-11T00:11:55.645Z,16.91
2017-06-11T00:12:55.668Z,16.95
2017-06-11T00:13:55.694Z,16.92
2017-06-11T00:14:55.755Z,16.9
2017-06-11T00:15:55.820Z,16.82
2017-06-11T00:16:55.829Z,16.74
2017-06-11T00:17:55.857Z,16.72
2017-06-11T00:18:55.899Z,16.67
2017-06-11T00:19:55.922Z,16.59
2017-06-11T00:20:56.170Z,16.57
2017-06-11T00:21:56.003Z,16.45
2017-06-11T00:22:56.045Z,16.42
2017-06-11T00:23:56.564Z,16.33
2017-06-11T00:24:56.127Z,16.32
2017-06-11T00:25:56.145Z,16.3
2017-06-11T00:26:56.182Z,16.3
2017-06-11T00:27:56.200Z,16.22
2017-06-11T00:28:56.261Z,16.18
2017-06-11T00:29:56.294Z,16.14
2017-06-11T00:30:56.328Z,16.16
2017-06-11T00:31:56.362Z,15.98
2017-06-11T00:32:56.411Z,15.98
2017-06-11T00:33:56.428Z,15.98
2017-06-11T00:34:56.464Z,15.93
2017-06-11T00:35:56.502Z,15.93
2017-06-11T00:36:56.532Z,15.89
2017-06-11T00:37:56.572Z,15.91
2017-06-11T00:38:56.595Z,15.93
2017-06-11T00:39:56.641Z,15.81
2017-06-11T00:40:56.678Z,15.8
2017-06-11T00:41:56.710Z,15.8
2017-06-11T00:42:56.733Z,15.8
2017-06-11T00:43:56.770Z,15.84
2017-06-11T00:44:56.806Z,15.84
2017-06-11T00:45:56.844Z,15.75
2017-06-11T00:46:56.887Z,15.78
2017-06-11T00:47:56.907Z,15.74
2017-06-11T00:48:56.957Z,15.71
2017-06-11T00:49:57.002Z,15.68
2017-06-11T00:50:57.032Z,15.74
2017-06-11T00:51:57.049Z,15.75
2017-06-11T00:52:57.102Z,15.77
2017-06-11T00:53:57.135Z,15.83
2017-06-11T00:54:57.172Z,15.78
2017-06-11T00:55:57.211Z,15.83
2017-06-11T00:56:57.240Z,15.89
2017-06-11T00:57:57.283Z,15.91
2017-06-11T00:58:57.317Z,15.89
2017-06-11T00:59:57.333Z,15.91
2017-06-11T01:00:57.377Z,15.95
2017-06-11T01:01:57.418Z,15.93
2017-06-11T01:02:57.432Z,15.96
2017-06-11T01:03:57.482Z,15.92
2017-06-11T01:04:57.519Z,15.86
2017-06-11T01:05:57.739Z,15.91
2017-06-11T01:06:57.599Z,15.86
2017-06-11T01:07:57.611Z,15.84
2017-06-11T01:08:57.666Z,15.81
2017-06-11T01:09:57.705Z,15.71
2017-06-11T01:10:57.732Z,15.71
2017-06-11T01:11:57.764Z,15.7
2017-06-11T01:12:57.803Z,15.6
2017-06-11T01:13:57.837Z,15.58
2017-06-11T01:14:57.869Z,15.6
2017-06-11T01:15:57.905Z,15.56
2017-06-11T01:16:57.917Z,15.49
2017-06-11T01:17:57.976Z,15.55
2017-06-11T01:18:57.993Z,15.52
2017-06-11T01:19:58.050Z,15.43
2017-06-11T01:20:58.072Z,15.41
2017-06-11T01:21:58.111Z,15.4
2017-06-11T01:22:58.125Z,15.37
2017-06-11T01:23:58.183Z,15.33
2017-06-11T01:24:58.212Z,15.25
2017-06-11T01:25:58.256Z,15.26
2017-06-11T01:26:58.308Z,15.3
2017-06-11T01:27:58.311Z,15.26
2017-06-11T01:28:58.361Z,15.19
2017-06-11T01:29:58.378Z,15.22
2017-06-11T01:30:58.434Z,15.18
2017-06-11T01:31:58.461Z,15.16
2017-06-11T01:32:58.502Z,15.12
2017-06-11T01:33:58.535Z,15.13
2017-06-11T01:34:58.570Z,15.12
2017-06-11T01:35:58.610Z,15.07
2017-06-11T01:36:58.620Z,15.07
2017-06-11T01:37:58.669Z,15.01
2017-06-11T01:38:58.710Z,14.95
2017-06-11T01:39:58.746Z,15.01
2017-06-11T01:40:58.775Z,15.04
2017-06-11T01:41:58.813Z,15
2017-06-11T01:42:58.831Z,14.95
2017-06-11T01:43:58.878Z,14.94
2017-06-11T01:44:58.916Z,14.89
2017-06-11T01:45:58.951Z,14.9
2017-06-11T01:46:59.003Z,14.85
2017-06-11T01:47:58.986Z,14.85
2017-06-11T01:48:59.076Z,14.83
2017-06-11T01:49:59.130Z,14.83
2017-06-11T01:50:59.112Z,14.77
2017-06-11T01:51:59.172Z,14.8
2017-06-11T01:52:59.208Z,14.79
2017-06-11T01:53:59.212Z,14.82
2017-06-11T01:54:59.260Z,14.77
2017-06-11T01:55:59.300Z,14.71
2017-06-11T01:56:59.329Z,14.74
2017-06-11T01:57:59.402Z,14.7
2017-06-11T01:58:59.404Z,14.7
2017-06-11T01:59:59.439Z,14.67
2017-06-11T02:00:59.499Z,14.7
2017-06-11T02:01:59.507Z,14.77
2017-06-11T02:02:59.536Z,14.67
2017-06-11T02:03:59.574Z,14.61
2017-06-11T02:04:59.609Z,14.67
2017-06-11T02:05:59.652Z,14.64
2017-06-11T02:06:59.652Z,14.67
2017-06-11T02:07:59.718Z,14.6
2017-06-11T02:08:59.752Z,14.67
2017-06-11T02:09:59.780Z,14.59
2017-06-11T02:10:59.823Z,14.67
2017-06-11T02:11:59.845Z,14.61
2017-06-11T02:12:59.882Z,14.53
2017-06-11T02:13:59.902Z,14.52
2017-06-11T02:14:59.970Z,14.51
2017-06-11T02:15:59.987Z,14.45
2017-06-11T02:17:00.017Z,14.53
2017-06-11T02:18:00.055Z,14.51
2017-06-11T02:19:00.081Z,14.49
2017-06-11T02:20:00.128Z,14.52
2017-06-11T02:21:00.157Z,14.42
2017-06-11T02:22:00.181Z,14.48
2017-06-11T02:23:00.238Z,14.42
2017-06-11T02:24:00.252Z,14.42
2017-06-11T02:25:00.303Z,14.41
2017-06-11T02:26:00.328Z,14.42
2017-06-11T02:27:00.363Z,14.42
2017-06-11T02:28:00.403Z,14.34
2017-06-11T02:29:00.430Z,14.34
2017-06-11T02:30:00.448Z,14.33
2017-06-11T02:31:00.504Z,14.33
2017-06-11T02:32:00.538Z,14.31
2017-06-11T02:33:00.569Z,14.38
2017-06-11T02:34:00.812Z,14.34
2017-06-11T02:35:01.079Z,14.34
2017-06-11T02:36:00.665Z,14.34
2017-06-11T02:37:00.707Z,14.23
2017-06-11T02:38:00.739Z,14.33
2017-06-11T02:39:00.770Z,14.23
2017-06-11T02:40:00.829Z,14.28
2017-06-11T02:41:00.862Z,14.26
2017-06-11T02:42:00.864Z,14.36
2017-06-11T02:43:00.894Z,14.28
2017-06-11T02:44:00.958Z,14.3
2017-06-11T02:45:00.969Z,14.3
2017-06-11T02:46:01.014Z,14.31
2017-06-11T02:47:01.088Z,14.28
2017-06-11T02:48:01.085Z,14.21
2017-06-11T02:49:01.115Z,14.28
2017-06-11T02:50:01.164Z,14.2
2017-06-11T02:51:01.182Z,14.23
2017-06-11T02:52:01.222Z,14.23
2017-06-11T02:53:01.257Z,14.24
2017-06-11T02:54:01.290Z,14.23
2017-06-11T02:55:01.323Z,14.12
2017-06-11T02:56:01.377Z,14.16
2017-06-11T02:57:01.389Z,14.15
2017-06-11T02:58:01.425Z,14.19
2017-06-11T02:59:01.456Z,14.15
2017-06-11T03:00:01.490Z,14.19
2017-06-11T03:01:01.528Z,14.15
2017-06-11T03:02:01.560Z,14.19
2017-06-11T03:03:01.584Z,14.11
2017-06-11T03:04:01.630Z,14.11
2017-06-11T03:05:01.664Z,14.13
2017-06-11T03:06:01.731Z,14.12
2017-06-11T03:07:01.732Z,14.11
2017-06-11T03:08:01.746Z,14.13
2017-06-11T03:09:01.803Z,14.16
2017-06-11T03:10:01.842Z,14.2
2017-06-11T03:11:01.860Z,14.2
2017-06-11T03:12:01.905Z,14.16
2017-06-11T03:13:01.898Z,14.23
2017-06-11T03:14:01.962Z,14.2
2017-06-11T03:15:02.006Z,14.2
2017-06-11T03:16:02.036Z,14.13
2017-06-11T03:17:02.043Z,14.2
2017-06-11T03:18:02.102Z,14.21
2017-06-11T03:19:02.101Z,14.2
2017-06-11T03:20:02.149Z,14.19
2017-06-11T03:21:02.211Z,14.15
2017-06-11T03:22:02.241Z,14.09
2017-06-11T03:23:02.272Z,14.09
2017-06-11T03:24:02.308Z,14.03
2017-06-11T03:25:02.353Z,14.15
2017-06-11T03:26:02.357Z,14.01
2017-06-11T03:27:02.421Z,14.09
2017-06-11T03:28:02.429Z,14.15
2017-06-11T03:29:02.470Z,14.19
2017-06-11T03:30:02.514Z,14.16
2017-06-11T03:31:02.551Z,14.21
2017-06-11T03:32:02.586Z,14.23
2017-06-11T03:33:02.614Z,14.16
2017-06-11T03:34:02.658Z,14.21
2017-06-11T03:35:02.649Z,14.24
2017-06-11T03:36:02.721Z,14.19
2017-06-11T03:37:02.753Z,14.23
2017-06-11T03:38:02.746Z,14.26
2017-06-11T03:39:02.822Z,14.24
2017-06-11T03:40:02.859Z,14.31
2017-06-11T03:41:02.874Z,14.26
2017-06-11T03:42:02.927Z,14.28
2017-06-11T03:43:02.958Z,14.28
2017-06-11T03:44:02.984Z,14.19
2017-06-11T03:45:03.010Z,14.24
2017-06-11T03:46:03.062Z,14.3
2017-06-11T03:47:03.070Z,14.3
2017-06-11T03:48:03.135Z,14.39
2017-06-11T03:49:03.172Z,14.39
2017-06-11T03:50:03.186Z,14.44
2017-06-11T03:51:03.232Z,14.44
2017-06-11T03:52:03.264Z,14.46
2017-06-11T03:53:03.285Z,14.57
2017-06-11T03:54:03.333Z,14.49
2017-06-11T03:55:03.344Z,14.57
2017-06-11T03:56:03.385Z,14.63
2017-06-11T03:57:03.435Z,14.64
2017-06-11T03:58:03.488Z,14.71
2017-06-11T03:59:03.502Z,14.7
2017-06-11T04:00:04.968Z,14.74
2017-06-11T04:01:03.581Z,14.7
2017-06-11T04:02:03.590Z,14.74
2017-06-11T04:03:03.646Z,14.66
2017-06-11T04:04:03.654Z,14.7
2017-06-11T04:05:03.738Z,14.75
2017-06-11T04:06:03.788Z,14.87
2017-06-11T04:07:03.765Z,14.77
2017-06-11T04:08:03.812Z,14.93
2017-06-11T04:09:03.836Z,14.97
2017-06-11T04:10:03.886Z,14.98
2017-06-11T04:11:03.905Z,15.05
2017-06-11T04:12:03.952Z,15.23
2017-06-11T04:13:03.987Z,15.38
2017-06-11T04:14:04.023Z,15.59
2017-06-11T04:15:04.053Z,15.83
2017-06-11T04:16:04.069Z,16.27
2017-06-11T04:17:04.126Z,16.62
2017-06-11T04:18:04.160Z,16.88
2017-06-11T04:19:04.188Z,17.4
2017-06-11T04:20:04.228Z,17.84
2017-06-11T04:21:04.265Z,18.16
2017-06-11T04:22:04.291Z,18.44
2017-06-11T04:23:04.331Z,18.65
2017-06-11T04:24:04.365Z,19.25
2017-06-11T04:25:04.404Z,19.82
2017-06-11T04:26:04.442Z,20.54
2017-06-11T04:27:04.470Z,21.25
2017-06-11T04:28:04.509Z,21.64
2017-06-11T04:29:04.554Z,22.07
2017-06-11T04:30:04.572Z,22.26
2017-06-11T04:31:04.619Z,21.96
2017-06-11T04:32:04.662Z,21.59
2017-06-11T04:33:04.708Z,21.16
2017-06-11T04:34:04.739Z,20.6
2017-06-11T04:35:04.767Z,20.08
2017-06-11T04:36:04.771Z,19.64
2017-06-11T04:37:04.854Z,19.12
2017-06-11T04:38:04.891Z,18.96
2017-06-11T04:39:04.916Z,18.79
2017-06-11T04:40:04.961Z,18.68
2017-06-11T04:41:04.992Z,18.59
2017-06-11T04:42:05.022Z,18.57
2017-06-11T04:43:05.063Z,18.59
2017-06-11T04:44:05.120Z,18.66
2017-06-11T04:45:05.154Z,18.84
2017-06-11T04:46:05.217Z,19.13
2017-06-11T04:47:05.238Z,19.17
2017-06-11T04:48:05.271Z,19.27
2017-06-11T04:49:05.286Z,19.24
2017-06-11T04:50:05.332Z,19.19
2017-06-11T04:51:05.328Z,19.23
2017-06-11T04:52:05.388Z,19
2017-06-11T04:53:05.673Z,18.9
2017-06-11T04:54:05.746Z,18.84
2017-06-11T04:55:05.738Z,18.86
2017-06-11T04:56:05.566Z,18.84
2017-06-11T04:57:05.634Z,18.89
2017-06-11T04:58:05.894Z,19.02
2017-06-11T04:59:05.656Z,19
2017-06-11T05:00:06.135Z,19.06
2017-06-11T05:01:05.997Z,19
2017-06-11T05:02:05.783Z,19.02
2017-06-11T05:03:05.904Z,19.02
2017-06-11T05:04:06.131Z,18.99
2017-06-11T05:05:05.914Z,19.09
2017-06-11T05:06:06.300Z,19.05
2017-06-11T05:07:06.036Z,18.97
2017-06-11T05:08:06.057Z,19.02
2017-06-11T05:09:06.507Z,19.09
2017-06-11T05:10:06.071Z,19.25
2017-06-11T05:11:06.405Z,19.3
2017-06-11T05:12:06.167Z,19.43
2017-06-11T05:13:06.481Z,19.46
2017-06-11T05:14:06.438Z,19.5
2017-06-11T05:15:06.579Z,19.55
2017-06-11T05:16:06.300Z,19.78
2017-06-11T05:17:06.626Z,19.9
2017-06-11T05:18:06.405Z,20.02
2017-06-11T05:19:07.078Z,20.22
2017-06-11T05:20:06.811Z,20.2
2017-06-11T05:21:06.780Z,20.27
2017-06-11T05:22:06.803Z,20.22
2017-06-11T05:23:06.609Z,20.19
2017-06-11T05:24:06.743Z,20.19
2017-06-11T05:25:07.419Z,20.11
2017-06-11T05:26:06.701Z,20.04
2017-06-11T05:27:06.817Z,20.08
2017-06-11T05:28:06.750Z,20.02
2017-06-11T05:29:06.838Z,20.19
2017-06-11T05:30:07.439Z,20.4
2017-06-11T05:31:06.996Z,20.79
2017-06-11T05:32:07.112Z,21.33
2017-06-11T05:33:06.970Z,21.96
2017-06-11T05:34:06.993Z,22.63
2017-06-11T05:35:07.037Z,23.12
2017-06-11T05:36:07.303Z,23.37
2017-06-11T05:37:07.315Z,23.37
2017-06-11T05:38:07.150Z,23.19
2017-06-11T05:39:07.426Z,23.03
2017-06-11T05:40:07.251Z,22.86
2017-06-11T05:41:07.538Z,22.67
2017-06-11T05:42:07.492Z,22.49
2017-06-11T05:43:07.334Z,22.51
2017-06-11T05:44:07.374Z,22.66
2017-06-11T05:45:07.448Z,22.97
2017-06-11T05:46:07.500Z,22.96
2017-06-11T05:47:07.500Z,22.97
2017-06-11T05:48:07.753Z,22.84
2017-06-11T05:49:07.608Z,22.88
2017-06-11T05:50:08.265Z,22.82
2017-06-11T05:51:07.657Z,22.61
2017-06-11T05:52:07.964Z,22.6
2017-06-11T05:53:07.967Z,22.49
2017-06-11T05:54:07.841Z,22.46
2017-06-11T05:55:07.839Z,22.49
2017-06-11T05:56:08.193Z,22.45
2017-06-11T05:57:08.387Z,22.51
2017-06-11T05:58:08.167Z,22.6
2017-06-11T05:59:08.282Z,22.73
2017-06-11T06:00:09.507Z,22.85
2017-06-11T06:01:09.742Z,23.28
2017-06-11T06:02:08.413Z,23.64
2017-06-11T06:03:08.154Z,24.03
2017-06-11T06:04:08.155Z,23.96
2017-06-11T06:05:12.490Z,24.14
2017-06-11T06:06:08.250Z,24.03
2017-06-11T06:07:08.263Z,23.92
2017-06-11T06:08:08.319Z,23.87
2017-06-11T06:09:08.846Z,23.84
2017-06-11T06:10:08.661Z,23.85
2017-06-11T06:11:08.795Z,23.99
2017-06-11T06:12:08.636Z,24.29
2017-06-11T06:13:08.632Z,24.61
2017-06-11T06:14:09.457Z,24.96
2017-06-11T06:15:09.481Z,25.23
2017-06-11T06:16:09.818Z,25.78
2017-06-11T06:17:09.333Z,26.45
2017-06-11T06:18:09.357Z,27.3
2017-06-11T06:19:09.035Z,28.24
2017-06-11T06:20:09.236Z,28.98
2017-06-11T06:21:08.838Z,29.73
2017-06-11T06:22:08.902Z,30.44
2017-06-11T06:23:08.910Z,31.22
2017-06-11T06:24:08.984Z,32.06
2017-06-11T06:25:09.000Z,32.8
2017-06-11T06:26:09.036Z,33.34
2017-06-11T06:27:09.064Z,33.66
2017-06-11T06:28:09.321Z,34.18
2017-06-11T06:29:09.154Z,34.77
2017-06-11T06:30:09.230Z,35.35
2017-06-11T06:31:09.245Z,36.14
2017-06-11T06:32:09.285Z,36.75
2017-06-11T06:33:09.337Z,36.86
2017-06-11T06:34:10.164Z,37.26
2017-06-11T06:35:09.892Z,37.61
2017-06-11T06:36:09.473Z,38.08
2017-06-11T06:37:09.505Z,38.17
2017-06-11T06:38:09.559Z,38.54
2017-06-11T06:39:09.648Z,38.8
2017-06-11T06:40:09.643Z,38.89
2017-06-11T06:41:09.735Z,39.09
2017-06-11T06:42:09.717Z,39.34
2017-06-11T06:43:09.785Z,39.47
2017-06-11T06:44:09.821Z,39.62
2017-06-11T06:45:09.862Z,39.34
2017-06-11T06:46:09.895Z,39.59
2017-06-11T06:47:10.585Z,39.84
2017-06-11T06:48:09.997Z,40.21
2017-06-11T06:49:10.049Z,40.32
2017-06-11T06:50:10.106Z,40.51
2017-06-11T06:51:10.124Z,40.94
2017-06-11T06:52:10.185Z,41.2
2017-06-11T06:53:10.468Z,41.41
2017-06-11T06:54:10.265Z,41.45
2017-06-11T06:55:10.313Z,41.56
2017-06-11T06:56:10.350Z,41.8
2017-06-11T06:57:10.395Z,41.95
2017-06-11T06:58:10.459Z,42.11
2017-06-11T06:59:10.509Z,42.1
2017-06-11T07:00:10.759Z,42.15
2017-06-11T07:01:10.611Z,42.37
2017-06-11T07:02:10.660Z,42.33
2017-06-11T07:03:10.701Z,42.41
2017-06-11T07:04:10.732Z,42.36
2017-06-11T07:05:10.782Z,42.35
2017-06-11T07:06:10.831Z,42.45
2017-06-11T07:07:10.881Z,42.59
2017-06-11T07:08:10.933Z,42.81
2017-06-11T07:09:10.981Z,43.11
2017-06-11T07:10:11.025Z,43.32
2017-06-11T07:11:11.047Z,43.08
2017-06-11T07:12:11.108Z,43.05
2017-06-11T07:13:11.162Z,42.9
2017-06-11T07:14:11.206Z,42.95
2017-06-11T07:15:11.256Z,43.04
2017-06-11T07:16:11.301Z,43.15
2017-06-11T07:17:11.531Z,43.15
2017-06-11T07:18:11.402Z,43.15
2017-06-11T07:19:11.436Z,43.24
2017-06-11T07:20:11.743Z,43.27
2017-06-11T07:21:11.540Z,43.46
2017-06-11T07:22:11.586Z,43.78
2017-06-11T07:23:11.643Z,44
2017-06-11T07:24:11.666Z,44.27
2017-06-11T07:25:11.726Z,44.48
2017-06-11T07:26:11.767Z,44.5
2017-06-11T07:27:11.818Z,44.58
2017-06-11T07:28:12.270Z,44.78
2017-06-11T07:29:11.917Z,44.9
2017-06-11T07:30:11.965Z,45.28
2017-06-11T07:31:12.002Z,45.38
2017-06-11T07:32:12.059Z,45.69
2017-06-11T07:33:12.166Z,45.85
2017-06-11T07:34:12.147Z,45.78
2017-06-11T07:35:12.214Z,45.78
2017-06-11T07:36:12.247Z,45.85
2017-06-11T07:37:12.290Z,45.77
2017-06-11T07:38:12.354Z,45.62
2017-06-11T07:39:12.414Z,45.6
2017-06-11T07:40:12.655Z,45.71
2017-06-11T07:41:12.500Z,45.86
2017-06-11T07:42:12.538Z,45.88
2017-06-11T07:43:12.598Z,45.94
2017-06-11T07:44:12.650Z,46.21
2017-06-11T07:45:12.698Z,46.24
2017-06-11T07:46:12.727Z,46.36
2017-06-11T07:47:12.777Z,45.97
2017-06-11T07:48:12.848Z,45.56
2017-06-11T07:49:12.897Z,45.34
2017-06-11T07:50:13.049Z,45.14
2017-06-11T07:51:13.003Z,45.07
2017-06-11T07:52:13.068Z,44.81
2017-06-11T07:53:13.097Z,44.53
2017-06-11T07:54:13.144Z,44.43
2017-06-11T07:55:13.384Z,44.55
2017-06-11T07:56:13.245Z,44.78
2017-06-11T07:57:13.270Z,45.09
2017-06-11T07:58:13.322Z,45.31
2017-06-11T07:59:13.380Z,45.44
2017-06-11T08:00:14.679Z,45.57
2017-06-11T08:01:13.481Z,45.86
2017-06-11T08:02:13.516Z,46.16
2017-06-11T08:03:13.559Z,46.4
2017-06-11T08:04:13.623Z,46.54
2017-06-11T08:05:13.676Z,46.77
2017-06-11T08:06:13.731Z,47.08
2017-06-11T08:07:13.774Z,47.38
2017-06-11T08:08:14.067Z,47.22
2017-06-11T08:09:13.855Z,47
2017-06-11T08:10:13.920Z,47.02
2017-06-11T08:11:14.011Z,47.27
2017-06-11T08:12:14.023Z,47.26
2017-06-11T08:13:14.069Z,47.23
2017-06-11T08:14:14.123Z,47.2
2017-06-11T08:15:14.168Z,47.01
2017-06-11T08:16:14.203Z,46.93
2017-06-11T08:17:14.269Z,46.69
2017-06-11T08:18:14.320Z,46.54
2017-06-11T08:19:14.377Z,46.5
2017-06-11T08:20:14.771Z,46.54
2017-06-11T08:21:14.471Z,46.52
2017-06-11T08:22:14.517Z,46.57
2017-06-11T08:23:14.552Z,46.67
2017-06-11T08:24:14.598Z,47.01
2017-06-11T08:25:14.672Z,47.05
2017-06-11T08:26:14.721Z,47
2017-06-11T08:27:14.771Z,46.96
2017-06-11T08:28:14.794Z,47.04
2017-06-11T08:29:14.869Z,47.1
2017-06-11T08:30:14.919Z,46.83
2017-06-11T08:31:14.975Z,47.01
2017-06-11T08:32:15.005Z,47.24
2017-06-11T08:33:15.074Z,47.43
2017-06-11T08:34:15.122Z,47.65
2017-06-11T08:35:15.180Z,47.9
2017-06-11T08:36:15.227Z,47.91
2017-06-11T08:37:15.274Z,47.88
2017-06-11T08:38:15.306Z,47.65
2017-06-11T08:39:15.375Z,47.31
2017-06-11T08:40:15.427Z,47.1
2017-06-11T08:41:15.463Z,47.07
2017-06-11T08:42:15.523Z,46.54
2017-06-11T08:43:15.581Z,46.03
2017-06-11T08:44:15.623Z,45.96
2017-06-11T08:45:15.706Z,46.17
2017-06-11T08:46:15.731Z,46.63
2017-06-11T08:47:15.780Z,47.2
2017-06-11T08:48:15.819Z,47.78
2017-06-11T08:49:15.885Z,48.14
2017-06-11T08:50:15.929Z,48.12
2017-06-11T08:51:15.971Z,47.5
2017-06-11T08:52:16.042Z,47.17
2017-06-11T08:53:16.082Z,47.39
2017-06-11T08:54:16.145Z,47.61
2017-06-11T08:55:16.304Z,47.81
2017-06-11T08:56:16.247Z,48.26
2017-06-11T08:57:16.290Z,48.57
2017-06-11T08:58:16.354Z,48.49
2017-06-11T08:59:16.427Z,48.66
2017-06-11T09:00:16.662Z,48.72
2017-06-11T09:01:16.508Z,48.85
2017-06-11T09:02:16.541Z,49.04
2017-06-11T09:03:16.608Z,48.75
2017-06-11T09:04:16.698Z,48.5
2017-06-11T09:05:16.712Z,48.12
2017-06-11T09:06:16.771Z,47.12
2017-06-11T09:07:16.799Z,46.51
2017-06-11T09:08:17.079Z,46.18
2017-06-11T09:09:16.891Z,46.18
2017-06-11T09:10:16.980Z,46.57
2017-06-11T09:11:17.026Z,47
2017-06-11T09:12:17.085Z,47.04
2017-06-11T09:13:17.137Z,47.12
2017-06-11T09:14:17.195Z,47.46
2017-06-11T09:15:17.239Z,47.77
2017-06-11T09:16:17.272Z,47.77
2017-06-11T09:17:17.344Z,47.81
2017-06-11T09:18:17.382Z,48.12
2017-06-11T09:19:17.436Z,48.28
2017-06-11T09:20:17.494Z,48.57
2017-06-11T09:21:17.548Z,48.72
2017-06-11T09:22:17.606Z,48.23
2017-06-11T09:23:17.656Z,47.93
2017-06-11T09:24:17.711Z,47.99
2017-06-11T09:25:17.772Z,48.33
2017-06-11T09:26:17.800Z,48.12
2017-06-11T09:27:17.875Z,47.69
2017-06-11T09:28:17.929Z,47.39
2017-06-11T09:29:17.965Z,47.08
2017-06-11T09:30:18.031Z,46.86
2017-06-11T09:31:18.064Z,46.8
2017-06-11T09:32:18.133Z,46.92
2017-06-11T09:33:18.193Z,47.34
2017-06-11T09:34:18.245Z,47.78
2017-06-11T09:35:18.285Z,47.9
2017-06-11T09:36:18.333Z,47.78
2017-06-11T09:37:18.403Z,47.12
2017-06-11T09:38:18.451Z,46.63
2017-06-11T09:39:18.511Z,46.64
2017-06-11T09:40:18.563Z,46.78
2017-06-11T09:41:18.608Z,47.3
2017-06-11T09:42:18.672Z,47.74
2017-06-11T09:43:18.728Z,48.26
2017-06-11T09:44:18.793Z,48.6
2017-06-11T09:45:18.832Z,49.04
2017-06-11T09:46:18.888Z,49.36
2017-06-11T09:47:18.935Z,49.51
2017-06-11T09:48:18.989Z,49.58
2017-06-11T09:49:19.049Z,49.49
2017-06-11T09:50:19.084Z,49.41
2017-06-11T09:51:19.149Z,49.29
2017-06-11T09:52:19.194Z,48.84
2017-06-11T09:53:19.241Z,48.65
2017-06-11T09:54:19.306Z,48.72
2017-06-11T09:55:19.374Z,48.35
2017-06-11T09:56:19.410Z,47.77
2017-06-11T09:57:19.475Z,46.71
2017-06-11T09:58:19.527Z,46.21
2017-06-11T09:59:19.583Z,45.71
2017-06-11T10:00:20.824Z,45.45
2017-06-11T10:01:19.668Z,45.5
2017-06-11T10:02:19.738Z,45.57
2017-06-11T10:03:19.800Z,45.67
2017-06-11T10:04:19.849Z,45.84
2017-06-11T10:05:19.914Z,45.85
2017-06-11T10:06:19.944Z,45.98
2017-06-11T10:07:20.003Z,46.48
2017-06-11T10:08:20.069Z,46.89
2017-06-11T10:09:20.135Z,46.9
2017-06-11T10:10:20.181Z,46.67
2017-06-11T10:11:20.227Z,46.23
2017-06-11T10:12:20.283Z,45.77
2017-06-11T10:13:20.336Z,45.56
2017-06-11T10:14:20.389Z,45.31
2017-06-11T10:15:20.438Z,45.09
2017-06-11T10:16:20.497Z,45.22
2017-06-11T10:17:20.549Z,45.32
2017-06-11T10:18:20.601Z,45.16
2017-06-11T10:19:20.653Z,44.15
2017-06-11T10:20:20.689Z,43.78
2017-06-11T10:21:20.757Z,43.47
2017-06-11T10:22:20.793Z,42.89
2017-06-11T10:23:20.858Z,42.92
2017-06-11T10:24:20.939Z,43
2017-06-11T10:25:20.960Z,43.32
2017-06-11T10:26:21.014Z,43.61
2017-06-11T10:27:21.084Z,43.95
2017-06-11T10:28:21.086Z,44.3
2017-06-11T10:29:21.159Z,44.43
2017-06-11T10:30:21.197Z,44.71
2017-06-11T10:31:21.265Z,44.88
2017-06-11T10:32:21.312Z,45.18
2017-06-11T10:33:21.363Z,45.14
2017-06-11T10:34:21.386Z,44.81
2017-06-11T10:35:21.467Z,44.73
2017-06-11T10:36:21.508Z,44.37
2017-06-11T10:37:21.556Z,43.57
2017-06-11T10:38:21.596Z,42.85
2017-06-11T10:39:21.658Z,42.23
2017-06-11T10:40:21.690Z,41.96
2017-06-11T10:41:21.746Z,41.75
2017-06-11T10:42:21.798Z,41.71
2017-06-11T10:43:21.839Z,41.8
2017-06-11T10:44:21.891Z,41.88
2017-06-11T10:45:21.942Z,42.37
2017-06-11T10:46:21.988Z,42.74
2017-06-11T10:47:22.037Z,42.95
2017-06-11T10:48:22.097Z,43.19
2017-06-11T10:49:22.132Z,43.69
2017-06-11T10:50:22.158Z,43.99
2017-06-11T10:51:22.216Z,44.07
2017-06-11T10:52:22.267Z,44.12
2017-06-11T10:53:22.290Z,43.97
2017-06-11T10:54:22.353Z,43.49
2017-06-11T10:55:22.383Z,43.19
2017-06-11T10:56:22.458Z,43.16
2017-06-11T10:57:22.468Z,43.15
2017-06-11T10:58:22.540Z,43.11
2017-06-11T10:59:22.586Z,43.02
2017-06-11T11:00:22.617Z,42.74
2017-06-11T11:01:22.680Z,42.4
2017-06-11T11:02:22.712Z,41.95
2017-06-11T11:03:22.767Z,41.73
2017-06-11T11:04:22.816Z,41.11
2017-06-11T11:05:22.861Z,40.88
2017-06-11T11:06:22.888Z,40.74
2017-06-11T11:07:22.946Z,40.75
2017-06-11T11:08:22.993Z,41.07
2017-06-11T11:09:23.014Z,41.78
2017-06-11T11:10:23.088Z,42.48
2017-06-11T11:11:23.127Z,43.17
2017-06-11T11:12:23.175Z,43.78
2017-06-11T11:13:23.207Z,44.26
2017-06-11T11:14:23.252Z,44.4
2017-06-11T11:15:23.291Z,44.3
2017-06-11T11:16:23.335Z,44.3
2017-06-11T11:17:23.383Z,44.43
2017-06-11T11:18:23.428Z,44.6
2017-06-11T11:19:23.479Z,44.73
2017-06-11T11:20:23.510Z,44.15
2017-06-11T11:21:23.554Z,43.28
2017-06-11T11:22:23.587Z,42.73
2017-06-11T11:23:23.645Z,42.3
2017-06-11T11:24:23.683Z,42.15
2017-06-11T11:25:23.715Z,42.07
2017-06-11T11:26:23.771Z,41.88
2017-06-11T11:27:23.816Z,41.94
2017-06-11T11:28:23.854Z,41.88
2017-06-11T11:29:23.915Z,41.08
2017-06-11T11:30:23.950Z,39.75
2017-06-11T11:31:23.987Z,38.25
2017-06-11T11:32:24.028Z,36.97
2017-06-11T11:33:24.068Z,35.95
2017-06-11T11:34:24.114Z,34.84
2017-06-11T11:35:24.155Z,33.83
2017-06-11T11:36:24.194Z,33.13
2017-06-11T11:37:24.242Z,32.61
2017-06-11T11:38:24.288Z,32.05
2017-06-11T11:39:24.334Z,31.56
2017-06-11T11:40:24.372Z,31.31
2017-06-11T11:41:24.415Z,31.06
2017-06-11T11:42:24.453Z,30.63
2017-06-11T11:43:24.501Z,30.49
2017-06-11T11:44:24.535Z,30.37
2017-06-11T11:45:24.585Z,30.29
2017-06-11T11:46:24.611Z,30.28
2017-06-11T11:47:24.682Z,30.19
2017-06-11T11:48:24.672Z,30.14
2017-06-11T11:49:24.748Z,30.04
2017-06-11T11:50:24.793Z,30
2017-06-11T11:51:24.843Z,29.97
2017-06-11T11:52:24.886Z,29.79
2017-06-11T11:53:24.918Z,29.67
2017-06-11T11:54:24.945Z,29.54
2017-06-11T11:55:24.993Z,29.43
2017-06-11T11:56:25.045Z,29.43
2017-06-11T11:57:25.067Z,29.38
2017-06-11T11:58:25.128Z,29.29
2017-06-11T11:59:25.167Z,29.29
2017-06-11T12:00:25.215Z,29.29
2017-06-11T12:01:25.255Z,29.28
2017-06-11T12:02:25.284Z,29.29
2017-06-11T12:03:25.335Z,29.26
2017-06-11T12:04:25.382Z,29.21
2017-06-11T12:05:25.414Z,29.23
2017-06-11T12:06:25.463Z,29.21
2017-06-11T12:07:25.493Z,29.26
2017-06-11T12:08:25.530Z,29.3
2017-06-11T12:09:25.592Z,29.32
2017-06-11T12:10:25.635Z,29.21
2017-06-11T12:11:25.673Z,29.15
2017-06-11T12:12:25.713Z,29.15
2017-06-11T12:13:25.759Z,29.01
2017-06-11T12:14:25.793Z,29.01
2017-06-11T12:15:25.840Z,28.98
2017-06-11T12:16:25.884Z,29.01
2017-06-11T12:17:25.916Z,28.98
2017-06-11T12:18:25.960Z,28.9
2017-06-11T12:19:26.004Z,28.92
2017-06-11T12:20:26.041Z,28.94
2017-06-11T12:21:26.088Z,28.97
2017-06-11T12:22:26.133Z,28.86
2017-06-11T12:23:26.165Z,28.85
2017-06-11T12:24:26.215Z,28.79
2017-06-11T12:25:26.256Z,28.72
2017-06-11T12:26:26.255Z,28.7
2017-06-11T12:27:26.337Z,28.75
2017-06-11T12:28:26.382Z,28.63
2017-06-11T12:29:26.417Z,28.55
2017-06-11T12:30:26.460Z,28.55
2017-06-11T12:31:26.493Z,28.45
2017-06-11T12:32:26.537Z,28.36
2017-06-11T12:33:26.585Z,28.39
2017-06-11T12:34:26.622Z,28.31
2017-06-11T12:35:26.671Z,28.36
2017-06-11T12:36:26.708Z,28.38
2017-06-11T12:37:26.748Z,28.45
2017-06-11T12:38:26.782Z,28.49
2017-06-11T12:39:26.830Z,28.49
2017-06-11T12:40:26.872Z,28.48
2017-06-11T12:41:26.905Z,28.46
2017-06-11T12:42:26.958Z,28.42
2017-06-11T12:43:27.002Z,28.35
2017-06-11T12:44:27.051Z,28.33
2017-06-11T12:45:27.090Z,28.28
2017-06-11T12:46:27.121Z,28.23
2017-06-11T12:47:27.171Z,28.27
2017-06-11T12:48:27.207Z,28.31
2017-06-11T12:49:27.241Z,28.3
2017-06-11T12:50:27.288Z,28.31
2017-06-11T12:51:27.349Z,28.31
2017-06-11T12:52:27.372Z,28.3
2017-06-11T12:53:27.402Z,28.33
2017-06-11T12:54:27.456Z,28.31
2017-06-11T12:55:27.482Z,28.35
2017-06-11T12:56:27.534Z,28.42
2017-06-11T12:57:27.580Z,28.36